NPV7634 PANC-PAFA
Flight info
| Callsign | NPV7634 |
|---|---|
| Flight time | 0h 43m |
| Altitude | 32000 |
| Route | CAWIN LIBER5 |
| Aircraft | B737/M-SDE2E3FGHIRWXY/LB1 |
Departure
| Time | 2026-04-14 16:03 |
|---|---|
| Airport | Ted Stevens Anchorage International Airport (PANC) |
Arrival
| Time | 2026-04-14 16:47 |
|---|---|
| Airport | Fairbanks International Airport (PAFA) |
| Time | Latitude | Longitude | Altitude | Speed | Heading |
|---|---|---|---|---|---|
| 2026-04-14 15:41 | 61.17211 | -149.98470 | 111 ft | 0 kts | 23° |
| 2026-04-14 15:54 | 61.17210 | -149.98471 | 110 ft | 2 kts | 23° |
| 2026-04-14 15:54 | 61.17188 | -149.98492 | 110 ft | 4 kts | 26° |
| 2026-04-14 15:55 | 61.17164 | -149.98517 | 115 ft | 4 kts | 27° |
| 2026-04-14 15:55 | 61.17141 | -149.98541 | 112 ft | 4 kts | 13° |
| 2026-04-14 15:55 | 61.17121 | -149.98536 | 114 ft | 4 kts | 300° |
| 2026-04-14 15:55 | 61.17117 | -149.98498 | 110 ft | 4 kts | 270° |
| 2026-04-14 15:56 | 61.17117 | -149.98468 | 114 ft | 1 kts | 270° |
| 2026-04-14 16:00 | 61.17117 | -149.98523 | 114 ft | 5 kts | 270° |
| 2026-04-14 16:00 | 61.17117 | -149.98619 | 115 ft | 8 kts | 270° |
| 2026-04-14 16:01 | 61.17117 | -149.98758 | 114 ft | 11 kts | 272° |
| 2026-04-14 16:01 | 61.17122 | -149.98957 | 115 ft | 16 kts | 273° |
| 2026-04-14 16:01 | 61.17199 | -149.99109 | 114 ft | 19 kts | 343° |
| 2026-04-14 16:01 | 61.17283 | -149.99206 | 112 ft | 12 kts | 296° |
| 2026-04-14 16:02 | 61.17289 | -149.99375 | 118 ft | 13 kts | 270° |
| 2026-04-14 16:02 | 61.17299 | -149.99600 | 121 ft | 14 kts | 263° |
| 2026-04-14 16:02 | 61.17295 | -149.99859 | 122 ft | 21 kts | 273° |
| 2026-04-14 16:02 | 61.17428 | -150.00025 | 134 ft | 40 kts | 345° |
| 2026-04-14 16:03 | 61.17959 | -150.00322 | 119 ft | 115 kts | 345° |
| 2026-04-14 16:03 | 61.18907 | -150.00868 | 298 ft | 156 kts | 343° |
| 2026-04-14 16:03 | 61.19932 | -150.01562 | 1137 ft | 151 kts | 336° |
| 2026-04-14 16:03 | 61.20746 | -150.02803 | 2176 ft | 142 kts | 318° |
| 2026-04-14 16:04 | 61.21471 | -150.04186 | 3034 ft | 142 kts | 321° |
| 2026-04-14 16:04 | 61.22244 | -150.05512 | 3664 ft | 155 kts | 335° |
| 2026-04-14 16:04 | 61.23399 | -150.05645 | 3996 ft | 187 kts | 12° |
| 2026-04-14 16:04 | 61.24765 | -150.04919 | 4272 ft | 218 kts | 13° |
| 2026-04-14 16:05 | 61.26338 | -150.04085 | 4665 ft | 246 kts | 13° |
| 2026-04-14 16:05 | 61.28021 | -150.03201 | 5606 ft | 253 kts | 12° |
| 2026-04-14 16:05 | 61.29754 | -150.02302 | 6560 ft | 261 kts | 12° |
| 2026-04-14 16:05 | 61.31533 | -150.01393 | 7566 ft | 264 kts | 12° |
| 2026-04-14 16:06 | 61.33329 | -150.00483 | 8581 ft | 268 kts | 12° |
| 2026-04-14 16:06 | 61.34534 | -149.99878 | 9244 ft | 270 kts | 12° |
| 2026-04-14 16:06 | 61.36372 | -149.98957 | 10201 ft | 274 kts | 12° |
| 2026-04-14 16:06 | 61.38296 | -149.98002 | 10636 ft | 298 kts | 12° |
| 2026-04-14 16:07 | 61.40389 | -149.96968 | 11043 ft | 317 kts | 12° |
| 2026-04-14 16:07 | 61.42566 | -149.95893 | 11809 ft | 325 kts | 12° |
| 2026-04-14 16:07 | 61.44789 | -149.94794 | 12684 ft | 331 kts | 12° |
| 2026-04-14 16:07 | 61.47053 | -149.93675 | 13582 ft | 337 kts | 12° |
| 2026-04-14 16:08 | 61.49354 | -149.92538 | 14392 ft | 342 kts | 12° |
| 2026-04-14 16:08 | 61.51691 | -149.91382 | 15271 ft | 347 kts | 12° |
| 2026-04-14 16:08 | 61.54046 | -149.90216 | 16137 ft | 351 kts | 12° |
| 2026-04-14 16:08 | 61.56446 | -149.89027 | 16996 ft | 356 kts | 12° |
| 2026-04-14 16:09 | 61.58877 | -149.87821 | 17845 ft | 361 kts | 12° |
| 2026-04-14 16:09 | 61.61339 | -149.86597 | 18624 ft | 367 kts | 12° |
| 2026-04-14 16:09 | 61.63835 | -149.85355 | 19421 ft | 369 kts | 12° |
| 2026-04-14 16:09 | 61.66352 | -149.84100 | 20171 ft | 375 kts | 12° |
| 2026-04-14 16:10 | 61.68914 | -149.82820 | 20830 ft | 382 kts | 12° |
| 2026-04-14 16:10 | 61.71471 | -149.81541 | 21668 ft | 383 kts | 12° |
| 2026-04-14 16:10 | 61.74067 | -149.80239 | 22489 ft | 385 kts | 12° |
| 2026-04-14 16:10 | 61.76689 | -149.78923 | 23253 ft | 388 kts | 12° |
| 2026-04-14 16:11 | 61.79325 | -149.77599 | 23896 ft | 392 kts | 11° |
| 2026-04-14 16:11 | 61.81988 | -149.76259 | 24503 ft | 395 kts | 11° |
| 2026-04-14 16:11 | 61.84677 | -149.74905 | 25109 ft | 398 kts | 11° |
| 2026-04-14 16:11 | 61.87379 | -149.73538 | 25711 ft | 401 kts | 11° |
| 2026-04-14 16:12 | 61.90092 | -149.72163 | 26401 ft | 400 kts | 11° |
| 2026-04-14 16:12 | 61.92792 | -149.70792 | 27235 ft | 397 kts | 10° |
| 2026-04-14 16:12 | 61.95459 | -149.69434 | 28100 ft | 393 kts | 10° |
| 2026-04-14 16:12 | 61.98114 | -149.68081 | 28879 ft | 391 kts | 9° |
| 2026-04-14 16:13 | 62.00762 | -149.66730 | 29634 ft | 390 kts | 9° |
| 2026-04-14 16:13 | 62.03392 | -149.65386 | 30354 ft | 388 kts | 9° |
| 2026-04-14 16:13 | 62.06015 | -149.64043 | 30923 ft | 387 kts | 9° |
| 2026-04-14 16:13 | 62.08639 | -149.62699 | 31448 ft | 388 kts | 9° |
| 2026-04-14 16:14 | 62.11264 | -149.61353 | 31908 ft | 390 kts | 8° |
| 2026-04-14 16:14 | 62.16560 | -149.58632 | 31931 ft | 388 kts | 9° |
| 2026-04-14 16:15 | 62.21792 | -149.55921 | 31938 ft | 387 kts | 9° |
| 2026-04-14 16:15 | 62.27003 | -149.53218 | 31974 ft | 389 kts | 9° |
| 2026-04-14 16:16 | 62.32285 | -149.50470 | 31957 ft | 392 kts | 9° |
| 2026-04-14 16:16 | 62.37605 | -149.47694 | 31949 ft | 394 kts | 9° |
| 2026-04-14 16:17 | 62.42933 | -149.44901 | 31962 ft | 394 kts | 9° |
| 2026-04-14 16:17 | 62.48251 | -149.42101 | 31959 ft | 393 kts | 9° |
| 2026-04-14 16:18 | 62.53551 | -149.39300 | 31976 ft | 392 kts | 9° |
| 2026-04-14 16:18 | 62.58848 | -149.36485 | 31988 ft | 392 kts | 10° |
| 2026-04-14 16:19 | 62.64151 | -149.33664 | 31982 ft | 392 kts | 10° |
| 2026-04-14 16:19 | 62.69459 | -149.30834 | 31983 ft | 393 kts | 10° |
| 2026-04-14 16:20 | 62.74787 | -149.27981 | 31985 ft | 395 kts | 10° |
| 2026-04-14 16:20 | 62.80130 | -149.25105 | 31993 ft | 395 kts | 10° |
| 2026-04-14 16:21 | 62.85473 | -149.22220 | 31991 ft | 396 kts | 10° |
| 2026-04-14 16:21 | 62.90782 | -149.19334 | 32002 ft | 396 kts | 11° |
| 2026-04-14 16:21 | 62.93459 | -149.17880 | 31886 ft | 397 kts | 11° |
| 2026-04-14 16:22 | 62.96147 | -149.16419 | 31495 ft | 397 kts | 11° |
| 2026-04-14 16:22 | 62.98817 | -149.14963 | 31073 ft | 394 kts | 11° |
| 2026-04-14 16:22 | 63.01474 | -149.13511 | 30668 ft | 391 kts | 12° |
| 2026-04-14 16:22 | 63.04105 | -149.12069 | 30282 ft | 388 kts | 12° |
| 2026-04-14 16:23 | 63.06717 | -149.10636 | 29837 ft | 386 kts | 12° |
| 2026-04-14 16:23 | 63.09315 | -149.09207 | 29370 ft | 383 kts | 12° |
| 2026-04-14 16:23 | 63.11887 | -149.07789 | 28945 ft | 379 kts | 12° |
| 2026-04-14 16:23 | 63.14435 | -149.06383 | 28526 ft | 376 kts | 12° |
| 2026-04-14 16:24 | 63.16967 | -149.04988 | 28106 ft | 374 kts | 12° |
| 2026-04-14 16:24 | 63.19477 | -149.03592 | 27706 ft | 371 kts | 12° |
| 2026-04-14 16:24 | 63.21977 | -149.02197 | 27261 ft | 370 kts | 12° |
| 2026-04-14 16:24 | 63.24467 | -149.00821 | 26829 ft | 368 kts | 12° |
| 2026-04-14 16:25 | 63.26949 | -148.99445 | 26423 ft | 367 kts | 13° |
| 2026-04-14 16:25 | 63.29426 | -148.98042 | 26011 ft | 366 kts | 13° |
| 2026-04-14 16:25 | 63.31884 | -148.96569 | 25599 ft | 366 kts | 14° |
| 2026-04-14 16:25 | 63.34336 | -148.95065 | 25189 ft | 365 kts | 14° |
| 2026-04-14 16:26 | 63.36776 | -148.93558 | 24771 ft | 364 kts | 14° |
| 2026-04-14 16:26 | 63.39221 | -148.92049 | 24380 ft | 364 kts | 14° |
| 2026-04-14 16:26 | 63.41658 | -148.90546 | 23967 ft | 364 kts | 14° |
| 2026-04-14 16:26 | 63.44102 | -148.89040 | 23535 ft | 364 kts | 14° |
| 2026-04-14 16:27 | 63.46547 | -148.87534 | 23040 ft | 364 kts | 14° |
| 2026-04-14 16:27 | 63.48987 | -148.86029 | 22561 ft | 364 kts | 14° |
| 2026-04-14 16:27 | 63.51419 | -148.84528 | 22150 ft | 362 kts | 14° |
| 2026-04-14 16:27 | 63.53844 | -148.83028 | 21688 ft | 361 kts | 14° |
| 2026-04-14 16:28 | 63.56229 | -148.81550 | 21273 ft | 359 kts | 14° |
| 2026-04-14 16:28 | 63.58634 | -148.80059 | 20831 ft | 358 kts | 14° |
| 2026-04-14 16:28 | 63.61034 | -148.78568 | 20406 ft | 357 kts | 14° |
| 2026-04-14 16:28 | 63.63423 | -148.77080 | 19977 ft | 356 kts | 14° |
| 2026-04-14 16:29 | 63.65806 | -148.75594 | 19550 ft | 355 kts | 14° |
| 2026-04-14 16:29 | 63.68184 | -148.74108 | 19125 ft | 354 kts | 14° |
| 2026-04-14 16:29 | 63.70557 | -148.72625 | 18705 ft | 353 kts | 14° |
| 2026-04-14 16:29 | 63.72926 | -148.71141 | 18272 ft | 353 kts | 14° |
| 2026-04-14 16:30 | 63.75292 | -148.69656 | 17799 ft | 351 kts | 14° |
| 2026-04-14 16:30 | 63.77641 | -148.68179 | 17339 ft | 350 kts | 14° |
| 2026-04-14 16:30 | 63.79977 | -148.66705 | 16928 ft | 347 kts | 14° |
| 2026-04-14 16:30 | 63.82296 | -148.65242 | 16536 ft | 344 kts | 14° |
| 2026-04-14 16:31 | 63.84596 | -148.63789 | 16106 ft | 342 kts | 14° |
| 2026-04-14 16:31 | 63.86881 | -148.62342 | 15697 ft | 340 kts | 14° |
| 2026-04-14 16:31 | 63.89148 | -148.60902 | 15274 ft | 337 kts | 14° |
| 2026-04-14 16:31 | 63.91402 | -148.59476 | 14858 ft | 335 kts | 14° |
| 2026-04-14 16:32 | 63.93616 | -148.58067 | 14450 ft | 333 kts | 15° |
| 2026-04-14 16:32 | 63.95838 | -148.56652 | 14041 ft | 331 kts | 14° |
| 2026-04-14 16:32 | 63.98047 | -148.55239 | 13610 ft | 329 kts | 14° |
| 2026-04-14 16:32 | 64.00236 | -148.53840 | 13182 ft | 324 kts | 14° |
| 2026-04-14 16:33 | 64.02391 | -148.52480 | 12776 ft | 320 kts | 14° |
| 2026-04-14 16:33 | 64.04517 | -148.51137 | 12369 ft | 315 kts | 15° |
| 2026-04-14 16:33 | 64.06611 | -148.49758 | 12027 ft | 310 kts | 15° |
| 2026-04-14 16:33 | 64.08683 | -148.48409 | 11633 ft | 308 kts | 15° |
| 2026-04-14 16:34 | 64.10748 | -148.47087 | 11220 ft | 307 kts | 15° |
| 2026-04-14 16:34 | 64.12781 | -148.45772 | 10813 ft | 302 kts | 15° |
| 2026-04-14 16:34 | 64.14804 | -148.44446 | 10398 ft | 302 kts | 15° |
| 2026-04-14 16:34 | 64.16815 | -148.43141 | 10127 ft | 296 kts | 15° |
| 2026-04-14 16:35 | 64.18766 | -148.41871 | 9956 ft | 287 kts | 15° |
| 2026-04-14 16:35 | 64.20634 | -148.40653 | 9963 ft | 272 kts | 15° |
| 2026-04-14 16:35 | 64.22403 | -148.39498 | 9771 ft | 266 kts | 15° |
| 2026-04-14 16:35 | 64.24176 | -148.38344 | 9591 ft | 261 kts | 15° |
| 2026-04-14 16:36 | 64.25911 | -148.37206 | 9305 ft | 257 kts | 15° |
| 2026-04-14 16:36 | 64.27618 | -148.36086 | 8794 ft | 255 kts | 15° |
| 2026-04-14 16:36 | 64.29330 | -148.34965 | 8265 ft | 255 kts | 15° |
| 2026-04-14 16:36 | 64.31030 | -148.33849 | 7796 ft | 253 kts | 15° |
| 2026-04-14 16:37 | 64.32715 | -148.32740 | 7332 ft | 251 kts | 15° |
| 2026-04-14 16:37 | 64.34393 | -148.31635 | 6894 ft | 248 kts | 15° |
| 2026-04-14 16:37 | 64.36037 | -148.30557 | 6550 ft | 243 kts | 15° |
| 2026-04-14 16:37 | 64.37621 | -148.29523 | 6214 ft | 237 kts | 15° |
| 2026-04-14 16:38 | 64.39233 | -148.28472 | 5886 ft | 238 kts | 15° |
| 2026-04-14 16:38 | 64.40834 | -148.27425 | 5567 ft | 240 kts | 15° |
| 2026-04-14 16:38 | 64.42447 | -148.26370 | 5245 ft | 242 kts | 15° |
| 2026-04-14 16:38 | 64.44053 | -148.25398 | 4991 ft | 240 kts | 8° |
| 2026-04-14 16:39 | 64.45734 | -148.25113 | 4859 ft | 240 kts | 1° |
| 2026-04-14 16:39 | 64.47396 | -148.25041 | 4704 ft | 244 kts | 1° |
| 2026-04-14 16:39 | 64.49107 | -148.24973 | 4551 ft | 247 kts | 1° |
| 2026-04-14 16:39 | 64.50825 | -148.24890 | 4396 ft | 246 kts | 1° |
| 2026-04-14 16:40 | 64.52536 | -148.24786 | 4240 ft | 246 kts | 1° |
| 2026-04-14 16:40 | 64.54243 | -148.24668 | 4095 ft | 245 kts | 1° |
| 2026-04-14 16:40 | 64.55945 | -148.24541 | 3947 ft | 244 kts | 1° |
| 2026-04-14 16:40 | 64.57640 | -148.24411 | 3803 ft | 243 kts | 2° |
| 2026-04-14 16:41 | 64.59327 | -148.24278 | 3658 ft | 243 kts | 2° |
| 2026-04-14 16:41 | 64.60969 | -148.23502 | 3485 ft | 243 kts | 28° |
| 2026-04-14 16:41 | 64.62363 | -148.21290 | 3409 ft | 241 kts | 35° |
| 2026-04-14 16:41 | 64.63690 | -148.19076 | 3333 ft | 229 kts | 36° |
| 2026-04-14 16:42 | 64.64929 | -148.16888 | 3251 ft | 218 kts | 37° |
| 2026-04-14 16:42 | 64.66089 | -148.14759 | 3165 ft | 207 kts | 38° |
| 2026-04-14 16:42 | 64.67188 | -148.12724 | 3116 ft | 195 kts | 38° |
| 2026-04-14 16:42 | 64.68203 | -148.10842 | 3049 ft | 178 kts | 38° |
| 2026-04-14 16:43 | 64.69137 | -148.09117 | 2953 ft | 164 kts | 38° |
| 2026-04-14 16:43 | 64.70013 | -148.07499 | 2892 ft | 159 kts | 38° |
| 2026-04-14 16:43 | 64.70879 | -148.05902 | 2833 ft | 159 kts | 38° |
| 2026-04-14 16:43 | 64.71751 | -148.04291 | 2756 ft | 161 kts | 38° |
| 2026-04-14 16:44 | 64.72641 | -148.02649 | 2552 ft | 164 kts | 38° |
| 2026-04-14 16:44 | 64.73524 | -148.01016 | 2312 ft | 159 kts | 38° |
| 2026-04-14 16:44 | 64.74383 | -147.99431 | 2082 ft | 155 kts | 38° |
| 2026-04-14 16:45 | 64.76077 | -147.96306 | 1554 ft | 153 kts | 38° |
| 2026-04-14 16:45 | 64.76884 | -147.94818 | 1368 ft | 141 kts | 38° |
| 2026-04-14 16:45 | 64.77631 | -147.93440 | 1171 ft | 133 kts | 38° |
| 2026-04-14 16:45 | 64.78360 | -147.92098 | 1002 ft | 133 kts | 38° |
| 2026-04-14 16:46 | 64.79088 | -147.90756 | 822 ft | 133 kts | 38° |
| 2026-04-14 16:46 | 64.79814 | -147.89415 | 639 ft | 133 kts | 38° |
| 2026-04-14 16:46 | 64.80538 | -147.88073 | 478 ft | 132 kts | 37° |
| 2026-04-14 16:46 | 64.81220 | -147.86832 | 428 ft | 109 kts | 39° |
| 2026-04-14 16:47 | 64.81723 | -147.85912 | 438 ft | 74 kts | 38° |
| 2026-04-14 16:47 | 64.82020 | -147.85365 | 431 ft | 46 kts | 38° |
| 2026-04-14 16:47 | 64.82256 | -147.84934 | 440 ft | 29 kts | 38° |
| 2026-04-14 16:47 | 64.82386 | -147.84696 | 442 ft | 15 kts | 32° |
| 2026-04-14 16:48 | 64.82442 | -147.84745 | 425 ft | 6 kts | 312° |
| 2026-04-14 16:48 | 64.82462 | -147.84803 | 432 ft | 3 kts | 306° |
| 2026-04-14 16:48 | 64.82477 | -147.84854 | 442 ft | 5 kts | 305° |
| 2026-04-14 16:48 | 64.82504 | -147.84927 | 430 ft | 7 kts | 316° |
| 2026-04-14 16:49 | 64.82552 | -147.84935 | 433 ft | 8 kts | 31° |
| 2026-04-14 16:49 | 64.82596 | -147.84945 | 426 ft | 8 kts | 310° |
| 2026-04-14 16:49 | 64.82625 | -147.85017 | 442 ft | 6 kts | 334° |
| 2026-04-14 16:49 | 64.82646 | -147.84977 | 434 ft | 2 kts | 110° |
| 2026-04-14 16:50 | 64.82639 | -147.84949 | 442 ft | 2 kts | 120° |
| 2026-04-14 16:50 | 64.82630 | -147.84919 | 429 ft | 0 kts | 126° |